createdAt,value
2023-03-05T00:05:05.125Z,23.8
2023-03-05T00:10:58.332Z,23.3
2023-03-05T00:16:50.572Z,22.8
2023-03-05T00:22:27.397Z,22.5
2023-03-05T00:27:48.926Z,22.3
2023-03-05T00:33:44.273Z,22.1
2023-03-05T00:39:37.216Z,21.9
2023-03-05T00:45:30.786Z,22.8
2023-03-05T00:51:23.807Z,23.6
2023-03-05T00:57:16.170Z,22.8
2023-03-05T01:03:09.440Z,22.5
2023-03-05T01:09:02.923Z,22.3
2023-03-05T01:14:38.807Z,22.1
2023-03-05T01:20:32.132Z,21.9
2023-03-05T01:26:09.038Z,22.4
2023-03-05T01:32:01.932Z,23.5
2023-03-05T01:37:25.717Z,23.1
2023-03-05T01:43:18.754Z,22.6
2023-03-05T01:49:11.892Z,22.3
2023-03-05T01:54:49.710Z,22.1
2023-03-05T02:00:42.621Z,21.9
2023-03-05T02:06:19.782Z,22.2
2023-03-05T02:11:57.156Z,23.3
2023-03-05T02:17:33.958Z,23
2023-03-05T02:23:26.348Z,22.4
2023-03-05T02:29:02.847Z,22.1
2023-03-05T02:34:40.412Z,21.8
2023-03-05T02:40:33.068Z,21.7
2023-03-05T02:46:25.215Z,21.6
2023-03-05T02:52:18.306Z,22.8
2023-03-05T02:58:11.778Z,23.3
2023-03-05T03:04:05.261Z,22.6
2023-03-05T03:09:42.188Z,22.1
2023-03-05T03:15:04.355Z,21.8
2023-03-05T03:20:57.618Z,21.7
2023-03-05T03:26:34.641Z,21.5
2023-03-05T03:32:12.834Z,21.4
2023-03-05T03:37:49.394Z,21.6
2023-03-05T03:43:41.993Z,22.8
2023-03-05T03:49:18.888Z,23.2
2023-03-05T03:55:10.542Z,22.4
2023-03-05T04:01:03.493Z,22.1
2023-03-05T04:06:55.757Z,21.8
2023-03-05T04:12:47.561Z,21.6
2023-03-05T04:18:25.245Z,21.5
2023-03-05T04:24:02.369Z,21.4
2023-03-05T04:29:54.903Z,21.9
2023-03-05T04:35:48.454Z,23.1
2023-03-05T04:41:40.730Z,22.9
2023-03-05T04:47:32.878Z,22.3
2023-03-05T04:53:25.564Z,21.9
2023-03-05T04:58:48.366Z,21.7
2023-03-05T05:04:26.029Z,21.6
2023-03-05T05:10:18.548Z,21.6
2023-03-05T05:16:11.054Z,23.3
2023-03-05T05:22:04.739Z,23.7
2023-03-05T05:27:57.147Z,22.8
2023-03-05T05:33:50.206Z,22.1
2023-03-05T05:39:42.773Z,21.7
2023-03-05T05:45:36.132Z,21.6
2023-03-05T05:51:29.331Z,21.5
2023-03-05T05:57:06.371Z,21.4
2023-03-05T06:02:59.972Z,22.4
2023-03-05T06:08:54.875Z,23.7
2023-03-05T06:14:48.151Z,23.4
2023-03-05T06:20:49.624Z,22.6
2023-03-05T06:26:41.197Z,22.1
2023-03-05T06:32:34.527Z,21.9
2023-03-05T06:38:27.213Z,21.7
2023-03-05T06:44:20.334Z,21.9
2023-03-05T06:49:57.632Z,23.4
2023-03-05T06:55:51.069Z,23.6
2023-03-05T07:01:44.931Z,22.8
2023-03-05T07:07:37.276Z,22.3
2023-03-05T07:13:32.240Z,21.9
2023-03-05T07:19:25.741Z,21.8
2023-03-05T07:25:18.318Z,21.6
2023-03-05T07:31:11.797Z,23.5
2023-03-05T07:37:04.736Z,24.1
2023-03-05T07:42:42.354Z,23.3
2023-03-05T07:48:35.870Z,22.7
2023-03-05T07:54:13.897Z,22.1
2023-03-05T08:00:07.823Z,22
2023-03-05T08:06:02.150Z,21.9
2023-03-05T08:11:55.177Z,22.7
2023-03-05T08:17:48.173Z,24.1
2023-03-05T08:23:26.166Z,23.7
2023-03-05T08:29:18.805Z,23
2023-03-05T08:35:14.245Z,22.6
2023-03-05T08:41:07.930Z,22.5
2023-03-05T08:47:01.273Z,22.3
2023-03-05T08:52:54.261Z,23
2023-03-05T08:58:47.304Z,24.6
2023-03-05T09:04:25.353Z,24
2023-03-05T09:10:17.697Z,23.3
2023-03-05T09:16:10.184Z,22.3
2023-03-05T09:22:04.061Z,21.8
2023-03-05T09:27:57.980Z,21.5
2023-03-05T09:33:51.940Z,21.3
2023-03-05T09:39:45.446Z,22.9
2023-03-05T09:45:38.000Z,23.7
2023-03-05T09:51:31.379Z,22.4
2023-03-05T09:57:23.452Z,22
2023-03-05T10:03:15.881Z,21.8
2023-03-05T10:09:08.554Z,23.5
2023-03-05T10:15:01.781Z,22.8
2023-03-05T10:20:39.565Z,22.1
2023-03-05T10:26:16.713Z,22.1
2023-03-05T10:32:09.667Z,22.3
2023-03-05T10:38:04.089Z,23.8
2023-03-05T10:43:57.138Z,22.6
2023-03-05T10:49:50.302Z,22.1
2023-03-05T10:55:27.894Z,21.8
2023-03-05T11:01:21.212Z,22.9
2023-03-05T11:07:16.954Z,23.6
2023-03-05T11:12:54.288Z,22.4
2023-03-05T11:18:49.766Z,22
2023-03-05T11:24:44.973Z,21.7
2023-03-05T11:30:44.872Z,23.2
2023-03-05T11:36:22.979Z,22.8
2023-03-05T11:42:16.133Z,22.2
2023-03-05T11:48:10.567Z,21.9
2023-03-05T11:54:05.282Z,22.1
2023-03-05T11:59:59.379Z,23.8
2023-03-05T12:05:40.327Z,22.6
2023-03-05T12:11:32.647Z,22.3
2023-03-05T12:17:26.957Z,21.9
2023-03-05T12:22:48.520Z,22.5
2023-03-05T12:28:42.256Z,23.4
2023-03-05T12:34:39.307Z,21.8
2023-03-05T12:40:54.763Z,22.3
2023-03-05T12:46:33.239Z,22
2023-03-05T12:52:11.741Z,23
2023-03-05T12:57:51.276Z,23.6
2023-03-05T13:03:29.443Z,22.6
2023-03-05T13:09:22.509Z,22.3
2023-03-05T13:15:17.180Z,22.1
2023-03-05T13:21:10.421Z,23.1
2023-03-05T13:27:04.133Z,23.4
2023-03-05T13:32:57.540Z,22.6
2023-03-05T13:39:00.699Z,22.4
2023-03-05T13:44:55.632Z,22.3
2023-03-05T13:50:50.008Z,21.9
2023-03-05T13:56:43.062Z,23.5
2023-03-05T14:02:39.927Z,23.6
2023-03-05T14:08:37.298Z,22.8
2023-03-05T14:14:31.065Z,22.6
2023-03-05T14:19:37.440Z,22.3
2023-03-05T14:25:38.140Z,22.1
2023-03-05T14:31:32.746Z,24.1
2023-03-05T14:37:26.540Z,23.5
2023-03-05T14:42:49.585Z,22.6
2023-03-05T14:48:26.233Z,22.4
2023-03-05T14:53:47.736Z,22.1
2023-03-05T14:59:40.300Z,21.9
2023-03-05T15:05:35.887Z,22.9
2023-03-05T15:11:28.767Z,23.6
2023-03-05T15:17:22.121Z,22.8
2023-03-05T15:22:44.283Z,22.4
2023-03-05T15:28:22.889Z,22.1
2023-03-05T15:33:48.124Z,21.9
2023-03-05T15:39:09.555Z,23
2023-03-05T15:44:47.016Z,24
2023-03-05T15:50:24.676Z,23.1
2023-03-05T15:56:02.918Z,22.7
2023-03-05T16:01:40.835Z,22.3
2023-03-05T16:07:17.517Z,22.1
2023-03-05T16:12:56.368Z,22.4
2023-03-05T16:18:35.594Z,23.8
2023-03-05T16:24:11.971Z,23.4
2023-03-05T16:29:49.133Z,22.8
2023-03-05T16:35:26.911Z,22.4
2023-03-05T16:41:14.370Z,22.1
2023-03-05T16:46:52.766Z,22
2023-03-05T16:52:18.928Z,22.4
2023-03-05T16:57:58.949Z,23.7
2023-03-05T17:03:40.610Z,22.4
2023-03-05T17:09:18.866Z,20.3
2023-03-05T17:14:55.882Z,19.7
2023-03-05T17:20:34.332Z,19.4
2023-03-05T17:26:13.420Z,19.3
2023-03-05T17:31:51.120Z,19
2023-03-05T17:37:39.130Z,19.9
2023-03-05T17:43:31.824Z,20.6
2023-03-05T17:49:09.106Z,20.4
2023-03-05T17:55:01.484Z,20.8
2023-03-05T18:00:56.035Z,20.8
2023-03-05T18:06:33.510Z,20.8
2023-03-05T18:12:11.353Z,20.7
2023-03-05T18:18:05.325Z,21.7
2023-03-05T18:24:00.472Z,22.3
2023-03-05T18:29:53.230Z,21.7
2023-03-05T18:35:46.118Z,20.2
2023-03-05T18:41:27.765Z,20.3
2023-03-05T18:47:06.577Z,20.8
2023-03-05T18:53:00.478Z,21.1
2023-03-05T18:58:52.647Z,22.3
2023-03-05T19:04:46.169Z,23.6
2023-03-05T19:10:24.422Z,22.6
2023-03-05T19:16:02.526Z,21.9
2023-03-05T19:21:55.705Z,21.4
2023-03-05T19:27:48.291Z,21.1
2023-03-05T19:33:41.417Z,21.2
2023-03-05T19:39:34.680Z,21.8
2023-03-05T19:45:27.990Z,22.9
2023-03-05T19:51:24.149Z,22.6
2023-03-05T19:56:31.414Z,21.8
2023-03-05T20:02:25.677Z,21.4
2023-03-05T20:08:03.152Z,21.1
2023-03-05T20:13:57.990Z,20.9
2023-03-05T20:19:51.359Z,20.8
2023-03-05T20:25:48.602Z,22
2023-03-05T20:31:30.237Z,23.1
2023-03-05T20:37:24.652Z,22.4
2023-03-05T20:43:02.985Z,21.7
2023-03-05T20:48:41.515Z,21.2
2023-03-05T20:54:20.205Z,21
2023-03-05T20:59:42.873Z,20.9
2023-03-05T21:10:29.329Z,22.3
2023-03-05T21:16:23.128Z,23.2
2023-03-05T21:22:02.934Z,21.9
2023-03-05T21:27:56.492Z,21.8
2023-03-05T21:33:33.534Z,21.3
2023-03-05T21:39:13.779Z,21
2023-03-05T21:45:06.734Z,20.8
2023-03-05T21:50:59.425Z,21.3
2023-03-05T21:56:52.619Z,22.6
2023-03-05T22:02:29.694Z,22.6
2023-03-05T22:08:06.439Z,22.4
2023-03-05T22:13:57.519Z,22.5
2023-03-05T22:19:36.899Z,21.8
2023-03-05T22:25:29.853Z,21.4
2023-03-05T22:37:00.473Z,21
2023-03-05T22:42:22.298Z,21
2023-03-05T22:48:14.656Z,21.9
2023-03-05T22:54:07.384Z,22.9
2023-03-05T22:59:28.450Z,22.8
2023-03-05T23:05:06.642Z,22
2023-03-05T23:11:00.155Z,21.9
2023-03-05T23:16:21.780Z,21.8
2023-03-05T23:21:58.540Z,21.7
2023-03-05T23:27:35.911Z,21.1
2023-03-05T23:33:13.875Z,22
2023-03-05T23:38:51.605Z,22.9
2023-03-05T23:44:14.048Z,23.1
2023-03-05T23:50:06.770Z,22.5
2023-03-05T23:55:32.014Z,21.9
